createdAt,value
2022-12-27T00:00:39.958Z,22.20
2022-12-27T00:01:40.899Z,22.73
2022-12-27T00:02:42.248Z,20.38
2022-12-27T00:03:43.571Z,23.77
2022-12-27T00:04:44.739Z,21.67
2022-12-27T00:05:47.102Z,23.65
2022-12-27T00:06:48.268Z,23.00
2022-12-27T00:07:49.159Z,26.25
2022-12-27T00:08:50.500Z,21.67
2022-12-27T00:09:52.916Z,18.52
2022-12-27T00:10:54.045Z,21.50
2022-12-27T00:11:59.788Z,21.02
2022-12-27T00:13:01.383Z,19.95
2022-12-27T00:14:03.186Z,21.58
2022-12-27T00:15:04.895Z,18.17
2022-12-27T00:16:07.002Z,20.33
2022-12-27T00:17:08.169Z,21.63
2022-12-27T00:18:09.036Z,18.50
2022-12-27T00:19:10.189Z,20.33
2022-12-27T00:20:11.850Z,20.40
2022-12-27T00:21:13.895Z,20.80
2022-12-27T00:22:14.736Z,22.58
2022-12-27T00:23:15.923Z,22.42
2022-12-27T00:24:16.789Z,21.95
2022-12-27T00:25:17.966Z,19.27
2022-12-27T00:26:19.607Z,22.20
2022-12-27T00:27:20.747Z,22.73
2022-12-27T00:28:21.675Z,20.15
2022-12-27T00:29:22.806Z,21.73
2022-12-27T00:30:23.651Z,21.85
2022-12-27T00:31:25.741Z,19.27
2022-12-27T00:32:26.624Z,20.70
2022-12-27T00:33:28.558Z,20.90
2022-12-27T00:34:29.420Z,23.23
2022-12-27T00:35:30.559Z,22.05
2022-12-27T00:36:32.287Z,23.50
2022-12-27T00:37:33.453Z,21.75
2022-12-27T00:38:34.500Z,18.42
2022-12-27T00:39:35.878Z,23.13
2022-12-27T00:40:38.339Z,22.38
2022-12-27T00:41:39.655Z,21.77
2022-12-27T00:42:40.509Z,22.17
2022-12-27T00:43:41.923Z,22.55
2022-12-27T00:44:42.811Z,20.10
2022-12-27T00:45:44.037Z,23.00
2022-12-27T00:46:44.887Z,19.95
2022-12-27T00:47:46.023Z,19.67
2022-12-27T00:48:46.909Z,23.98
2022-12-27T00:49:48.094Z,21.53
2022-12-27T00:50:49.140Z,19.30
2022-12-27T00:51:50.909Z,24.37
2022-12-27T00:52:51.801Z,36.25
2022-12-27T00:53:53.657Z,30.52
2022-12-27T00:54:54.485Z,30.90
2022-12-27T00:55:55.791Z,23.17
2022-12-27T00:56:56.633Z,24.50
2022-12-27T00:57:57.867Z,28.42
2022-12-27T00:59:02.947Z,27.15
2022-12-27T01:00:09.794Z,25.05
2022-12-27T01:01:12.294Z,23.80
2022-12-27T01:03:14.596Z,20.95
2022-12-27T01:04:16.579Z,23.60
2022-12-27T01:05:18.659Z,27.10
2022-12-27T01:06:20.836Z,22.53
2022-12-27T01:07:22.700Z,24.30
2022-12-27T01:08:23.611Z,26.08
2022-12-27T01:09:24.851Z,21.33
2022-12-27T01:10:25.735Z,26.77
2022-12-27T01:11:27.881Z,23.73
2022-12-27T01:12:28.726Z,24.20
2022-12-27T01:13:30.252Z,27.47
2022-12-27T01:14:31.135Z,22.42
2022-12-27T01:15:32.280Z,25.63
2022-12-27T01:16:33.243Z,25.27
2022-12-27T01:17:34.407Z,22.38
2022-12-27T01:18:35.279Z,25.42
2022-12-27T01:19:36.531Z,27.08
2022-12-27T01:20:37.807Z,25.75
2022-12-27T01:21:38.971Z,26.60
2022-12-27T01:22:40.471Z,25.08
2022-12-27T01:23:42.069Z,27.10
2022-12-27T01:24:42.929Z,28.55
2022-12-27T01:25:44.057Z,26.15
2022-12-27T01:26:44.914Z,27.10
2022-12-27T01:27:46.047Z,27.23
2022-12-27T01:28:47.348Z,28.33
2022-12-27T01:29:48.547Z,26.35
2022-12-27T01:30:49.388Z,28.05
2022-12-27T01:31:50.759Z,29.48
2022-12-27T01:32:51.639Z,25.23
2022-12-27T01:33:53.944Z,28.38
2022-12-27T01:34:54.849Z,26.05
2022-12-27T01:35:56.002Z,30.27
2022-12-27T01:36:56.849Z,29.27
2022-12-27T01:37:58.680Z,28.33
2022-12-27T01:39:00.052Z,30.17
2022-12-27T01:40:01.288Z,28.23
2022-12-27T01:41:22.329Z,31.08
2022-12-27T01:42:41.563Z,31.17
2022-12-27T01:43:42.446Z,27.45
2022-12-27T01:44:54.595Z,28.07
2022-12-27T01:45:55.531Z,26.23
2022-12-27T01:46:56.694Z,30.53
2022-12-27T01:48:00.593Z,24.70
2022-12-27T01:49:04.436Z,28.88
2022-12-27T01:50:09.361Z,27.15
2022-12-27T01:51:10.908Z,27.00
2022-12-27T01:52:13.048Z,29.15
2022-12-27T01:53:16.437Z,26.60
2022-12-27T01:54:17.584Z,30.67
2022-12-27T01:55:21.648Z,31.35
2022-12-27T01:56:25.110Z,29.80
2022-12-27T01:57:26.081Z,28.70
2022-12-27T01:58:28.539Z,26.53
2022-12-27T01:59:29.455Z,29.48
2022-12-27T02:00:30.675Z,27.33
2022-12-27T02:01:33.603Z,26.88
2022-12-27T02:02:34.967Z,27.17
2022-12-27T02:03:39.572Z,32.90
2022-12-27T02:04:40.462Z,28.15
2022-12-27T02:05:41.899Z,24.17
2022-12-27T02:06:42.945Z,27.73
2022-12-27T02:07:48.486Z,27.33
2022-12-27T02:08:52.686Z,24.98
2022-12-27T02:09:56.498Z,28.17
2022-12-27T02:10:58.284Z,30.02
2022-12-27T02:12:01.320Z,28.65
2022-12-27T02:13:04.370Z,24.70
2022-12-27T02:14:05.761Z,29.05
2022-12-27T02:15:07.291Z,31.02
2022-12-27T02:16:12.224Z,27.02
2022-12-27T02:17:14.922Z,27.85
2022-12-27T02:18:15.946Z,30.55
2022-12-27T02:19:21.373Z,26.73
2022-12-27T02:20:23.808Z,27.95
2022-12-27T02:21:49.046Z,27.30
2022-12-27T02:23:36.215Z,31.60
2022-12-27T02:25:07.338Z,29.33
2022-12-27T02:26:35.544Z,30.73
2022-12-27T02:27:48.554Z,26.30
2022-12-27T02:28:57.846Z,28.02
2022-12-27T02:30:01.533Z,27.95
2022-12-27T02:31:04.448Z,29.98
2022-12-27T02:32:07.655Z,29.33
2022-12-27T02:33:13.146Z,32.55
2022-12-27T02:34:16.624Z,31.50
2022-12-27T02:35:21.014Z,33.75
2022-12-27T02:36:25.551Z,29.77
2022-12-27T02:37:28.677Z,29.33
2022-12-27T02:38:31.524Z,30.00
2022-12-27T02:39:33.991Z,30.50
2022-12-27T02:40:54.403Z,33.97
2022-12-27T02:42:14.858Z,30.88
2022-12-27T02:43:34.694Z,28.17
2022-12-27T02:45:00.414Z,28.90
2022-12-27T02:46:22.379Z,30.30
2022-12-27T02:47:42.709Z,31.80
2022-12-27T02:49:09.359Z,28.52
2022-12-27T02:50:30.344Z,28.27
2022-12-27T02:51:53.610Z,28.38
2022-12-27T02:53:07.419Z,28.92
2022-12-27T02:54:16.438Z,33.45
2022-12-27T02:55:27.568Z,28.73
2022-12-27T02:56:51.422Z,28.85
2022-12-27T02:57:57.933Z,28.67
2022-12-27T02:59:06.986Z,31.48
2022-12-27T03:00:29.536Z,30.05
2022-12-27T03:01:57.190Z,31.88
2022-12-27T03:03:23.013Z,30.63
2022-12-27T03:04:30.622Z,32.08
2022-12-27T03:05:36.728Z,30.52
2022-12-27T03:06:47.159Z,33.88
2022-12-27T03:07:50.794Z,32.25
2022-12-27T03:08:55.930Z,30.23
2022-12-27T03:10:30.452Z,36.85
2022-12-27T03:11:53.842Z,32.90
2022-12-27T03:13:14.138Z,33.47
2022-12-27T03:14:36.024Z,32.83
2022-12-27T03:15:56.239Z,34.53
2022-12-27T03:17:00.060Z,34.33
2022-12-27T03:18:05.049Z,34.42
2022-12-27T03:19:08.920Z,35.78
2022-12-27T03:20:31.692Z,36.50
2022-12-27T03:21:52.033Z,36.97
2022-12-27T03:23:11.982Z,32.78
2022-12-27T03:24:31.940Z,37.15
2022-12-27T03:25:34.336Z,36.13
2022-12-27T03:26:36.440Z,37.67
2022-12-27T03:27:38.110Z,36.60
2022-12-27T03:28:58.351Z,38.80
2022-12-27T03:30:18.838Z,34.08
2022-12-27T03:31:41.664Z,35.33
2022-12-27T03:33:02.998Z,33.63
2022-12-27T03:34:26.102Z,36.83
2022-12-27T03:35:29.043Z,36.47
2022-12-27T03:36:49.893Z,36.10
2022-12-27T03:38:03.506Z,38.17
2022-12-27T03:39:06.754Z,36.40
2022-12-27T03:40:10.652Z,37.90
2022-12-27T03:41:32.570Z,40.63
2022-12-27T03:42:54.313Z,38.50
2022-12-27T03:43:55.584Z,33.83
2022-12-27T03:44:56.476Z,38.50
2022-12-27T03:46:16.546Z,37.87
2022-12-27T03:47:24.454Z,39.53
2022-12-27T03:48:26.088Z,39.00
2022-12-27T03:49:30.571Z,34.25
2022-12-27T03:50:35.645Z,36.50
2022-12-27T03:51:37.917Z,37.30
2022-12-27T03:52:41.390Z,41.75
2022-12-27T03:53:43.414Z,34.70
2022-12-27T03:55:45.215Z,39.15
2022-12-27T03:56:46.065Z,35.42
2022-12-27T03:57:47.433Z,37.17
2022-12-27T03:58:48.408Z,40.00
2022-12-27T03:59:49.623Z,38.05
2022-12-27T04:00:50.533Z,38.25
2022-12-27T04:01:51.783Z,34.67
2022-12-27T04:02:53.560Z,37.80
2022-12-27T04:03:54.772Z,37.88
2022-12-27T04:04:55.620Z,38.67
2022-12-27T04:05:56.741Z,33.53
2022-12-27T04:06:57.610Z,38.00
2022-12-27T04:08:16.767Z,41.22
2022-12-27T04:09:36.132Z,37.38
2022-12-27T04:10:55.494Z,40.83
2022-12-27T04:12:15.016Z,39.85
2022-12-27T04:13:34.540Z,33.30
2022-12-27T04:14:54.027Z,41.58
2022-12-27T04:16:13.429Z,34.60
2022-12-27T04:17:32.805Z,42.28
2022-12-27T04:18:52.531Z,35.55
2022-12-27T04:20:11.883Z,43.45
2022-12-27T04:21:31.152Z,40.03
2022-12-27T04:22:50.579Z,42.70
2022-12-27T04:24:10.042Z,42.58
2022-12-27T04:25:29.589Z,35.92
2022-12-27T04:26:48.947Z,40.47
2022-12-27T04:28:08.541Z,35.40
2022-12-27T04:29:27.889Z,42.15
2022-12-27T04:30:47.216Z,35.00
2022-12-27T04:32:06.494Z,41.13
2022-12-27T04:33:25.785Z,40.45
2022-12-27T04:34:42.833Z,41.83
2022-12-27T04:35:43.689Z,39.67
2022-12-27T04:36:44.811Z,38.63
2022-12-27T04:37:45.668Z,43.03
2022-12-27T04:38:46.799Z,41.60
2022-12-27T04:40:09.424Z,43.42
2022-12-27T04:41:28.500Z,40.35
2022-12-27T04:42:47.865Z,41.88
2022-12-27T04:44:07.156Z,38.92
2022-12-27T04:45:29.257Z,47.33
2022-12-27T04:46:48.546Z,41.92
2022-12-27T04:48:07.827Z,40.58
2022-12-27T04:49:29.222Z,40.03
2022-12-27T04:50:50.472Z,41.42
2022-12-27T04:52:09.732Z,49.53
2022-12-27T04:53:29.611Z,45.33
2022-12-27T04:55:00.564Z,47.53
2022-12-27T04:56:02.188Z,46.15
2022-12-27T04:57:03.357Z,51.78
2022-12-27T04:58:04.497Z,48.40
2022-12-27T04:59:32.219Z,56.00
2022-12-27T05:00:51.712Z,49.15
2022-12-27T05:02:05.101Z,48.45
2022-12-27T05:03:08.797Z,50.05
2022-12-27T05:04:09.709Z,54.00
2022-12-27T05:05:11.429Z,50.37
2022-12-27T05:06:12.973Z,50.25
2022-12-27T05:07:32.807Z,52.95
2022-12-27T05:08:52.069Z,54.42
2022-12-27T05:10:11.404Z,56.67
2022-12-27T05:11:30.801Z,56.45
2022-12-27T05:12:50.258Z,57.00
2022-12-27T05:14:00.404Z,56.33
2022-12-27T05:15:01.234Z,59.88
2022-12-27T05:16:02.446Z,56.30
2022-12-27T05:17:03.370Z,58.75
2022-12-27T05:18:04.331Z,68.53
2022-12-27T05:19:06.234Z,64.97
2022-12-27T05:20:07.808Z,64.07
2022-12-27T05:21:08.948Z,72.03
2022-12-27T05:22:29.277Z,74.47
2022-12-27T05:23:48.764Z,69.80
2022-12-27T05:25:08.285Z,70.80
2022-12-27T05:26:09.435Z,70.70
2022-12-27T05:27:10.299Z,87.68
2022-12-27T05:28:11.894Z,78.18
2022-12-27T05:29:12.790Z,77.65
2022-12-27T05:30:13.923Z,72.77
2022-12-27T05:31:14.829Z,80.63
2022-12-27T05:32:15.988Z,79.38
2022-12-27T05:33:16.859Z,82.82
2022-12-27T05:34:18.020Z,79.88
2022-12-27T05:35:18.863Z,77.15
2022-12-27T05:36:20.408Z,86.32
2022-12-27T05:37:21.963Z,84.68
2022-12-27T05:38:23.113Z,88.70
2022-12-27T05:39:24.311Z,90.32
2022-12-27T05:40:25.484Z,86.70
2022-12-27T05:41:26.635Z,91.15
2022-12-27T05:42:27.468Z,78.95
2022-12-27T05:43:28.917Z,76.05
2022-12-27T05:44:29.825Z,85.43
2022-12-27T05:45:32.321Z,94.10
2022-12-27T05:46:33.221Z,85.10
2022-12-27T05:47:34.404Z,85.97
2022-12-27T05:48:35.567Z,78.82
2022-12-27T05:49:36.781Z,83.10
2022-12-27T05:50:37.653Z,97.65
2022-12-27T05:51:38.790Z,90.40
2022-12-27T05:52:41.282Z,101.32
2022-12-27T05:53:43.056Z,91.97
2022-12-27T05:54:43.967Z,83.18
2022-12-27T05:55:45.132Z,92.40
2022-12-27T05:56:45.988Z,97.38
2022-12-27T05:57:47.136Z,95.63
2022-12-27T05:58:48.017Z,88.05
2022-12-27T05:59:49.239Z,87.25
2022-12-27T06:00:50.365Z,91.07
2022-12-27T06:01:51.615Z,99.03
2022-12-27T06:02:52.801Z,90.07
2022-12-27T06:03:53.989Z,90.87
2022-12-27T06:04:54.868Z,87.85
2022-12-27T06:05:59.479Z,97.50
2022-12-27T06:07:00.471Z,98.28
2022-12-27T06:08:02.305Z,93.70
2022-12-27T06:09:03.251Z,99.95
2022-12-27T06:10:04.980Z,80.80
2022-12-27T06:11:06.998Z,91.00
2022-12-27T06:13:08.795Z,92.78
2022-12-27T06:14:11.027Z,97.07
2022-12-27T06:15:11.928Z,113.68
2022-12-27T06:16:13.231Z,102.97
2022-12-27T06:17:14.175Z,110.40
2022-12-27T06:18:15.293Z,108.70
2022-12-27T06:19:16.252Z,109.28
2022-12-27T06:20:17.726Z,102.17
2022-12-27T06:21:19.648Z,116.65
2022-12-27T06:22:20.812Z,103.75
2022-12-27T06:23:22.320Z,119.63
2022-12-27T06:24:23.516Z,111.40
2022-12-27T06:25:24.411Z,105.18
2022-12-27T06:26:26.872Z,111.50
2022-12-27T06:27:27.786Z,114.90
2022-12-27T06:28:28.924Z,112.03
2022-12-27T06:29:29.823Z,120.80
2022-12-27T06:30:35.997Z,126.53
2022-12-27T06:31:37.604Z,111.97
2022-12-27T06:32:38.755Z,118.32
2022-12-27T06:33:39.601Z,121.47
2022-12-27T06:34:40.775Z,118.53
2022-12-27T06:35:41.667Z,122.93
2022-12-27T06:36:48.996Z,126.78
2022-12-27T06:37:49.847Z,117.75
2022-12-27T06:38:51.667Z,121.93
2022-12-27T06:39:52.531Z,141.15
2022-12-27T06:40:59.804Z,133.30
2022-12-27T06:42:00.656Z,146.98
2022-12-27T06:43:01.798Z,141.23
2022-12-27T06:44:03.287Z,134.00
2022-12-27T06:45:05.973Z,143.45
2022-12-27T06:46:10.313Z,125.35
2022-12-27T06:47:14.780Z,127.00
2022-12-27T06:48:15.621Z,130.52
2022-12-27T06:49:16.814Z,132.90
2022-12-27T06:50:17.697Z,130.07
2022-12-27T06:51:19.769Z,141.43
2022-12-27T06:52:22.443Z,127.28
2022-12-27T06:53:23.655Z,147.98
2022-12-27T06:54:25.173Z,149.68
2022-12-27T06:55:26.328Z,153.55
2022-12-27T06:56:27.467Z,144.43
2022-12-27T06:57:28.612Z,142.75
2022-12-27T06:58:29.454Z,136.18
2022-12-27T06:59:30.635Z,133.00
2022-12-27T07:00:31.535Z,159.95
2022-12-27T07:01:32.791Z,149.50
2022-12-27T07:02:33.860Z,135.48
2022-12-27T07:03:35.167Z,146.65
2022-12-27T07:04:36.057Z,177.73
2022-12-27T07:05:37.684Z,135.13
2022-12-27T07:06:38.563Z,164.80
2022-12-27T07:07:39.698Z,150.93
2022-12-27T07:08:40.673Z,155.85
2022-12-27T07:09:42.534Z,172.85
2022-12-27T07:10:43.378Z,154.82
2022-12-27T07:11:45.155Z,163.50
2022-12-27T07:12:46.003Z,172.00
2022-12-27T07:13:48.275Z,161.65
2022-12-27T07:14:49.120Z,186.23
2022-12-27T07:15:50.284Z,166.97
2022-12-27T07:16:51.301Z,190.73
2022-12-27T07:17:52.440Z,174.40
2022-12-27T07:18:54.115Z,192.82
2022-12-27T07:19:55.294Z,210.50
2022-12-27T07:20:56.175Z,132.75
2022-12-27T07:21:57.400Z,190.02
2022-12-27T07:22:59.301Z,175.32
2022-12-27T07:25:02.978Z,174.15
2022-12-27T07:26:04.560Z,175.07
2022-12-27T07:27:05.492Z,169.63
2022-12-27T07:28:06.623Z,196.07
2022-12-27T07:29:07.476Z,195.25
2022-12-27T07:30:09.368Z,229.93
2022-12-27T07:31:11.455Z,203.40
2022-12-27T07:32:12.690Z,188.57
2022-12-27T07:33:13.562Z,238.07
2022-12-27T07:34:14.717Z,215.50
2022-12-27T07:35:15.629Z,246.10
2022-12-27T07:36:17.787Z,216.27
2022-12-27T07:37:19.325Z,201.13
2022-12-27T07:38:20.656Z,221.27
2022-12-27T07:39:21.508Z,245.00
2022-12-27T07:40:23.290Z,245.57
2022-12-27T07:41:24.187Z,243.32
2022-12-27T07:42:25.402Z,266.87
2022-12-27T07:43:28.330Z,211.93
2022-12-27T07:44:29.571Z,246.57
2022-12-27T07:45:31.382Z,228.00
2022-12-27T07:46:32.588Z,194.15
2022-12-27T07:47:33.502Z,230.93
2022-12-27T07:48:34.927Z,238.88
2022-12-27T07:49:35.820Z,238.73
2022-12-27T07:50:36.926Z,264.20
2022-12-27T07:51:38.070Z,280.25
2022-12-27T07:52:38.936Z,225.70
2022-12-27T07:53:40.139Z,241.23
2022-12-27T07:54:40.986Z,248.35
2022-12-27T07:55:42.829Z,217.75
2022-12-27T07:56:43.687Z,251.93
2022-12-27T07:57:44.910Z,202.27
2022-12-27T07:58:47.263Z,231.38
2022-12-27T07:59:48.422Z,223.98
2022-12-27T08:00:50.072Z,239.07
2022-12-27T08:02:06.614Z,233.48
2022-12-27T08:03:07.689Z,211.27
2022-12-27T08:04:08.913Z,209.80
2022-12-27T08:05:09.786Z,230.60
2022-12-27T08:06:19.322Z,291.80
2022-12-27T08:07:20.310Z,232.52
2022-12-27T08:08:22.711Z,253.27
2022-12-27T08:09:25.141Z,226.52
2022-12-27T08:10:26.324Z,196.00
2022-12-27T08:11:29.418Z,221.60
2022-12-27T08:12:30.318Z,204.90
2022-12-27T08:13:31.487Z,227.63
2022-12-27T08:14:32.657Z,202.55
2022-12-27T08:15:33.530Z,257.20
2022-12-27T08:16:34.892Z,231.70
2022-12-27T08:17:35.807Z,228.30
2022-12-27T08:18:36.978Z,223.20
2022-12-27T08:19:37.878Z,213.52
2022-12-27T08:20:39.057Z,250.60
2022-12-27T08:21:39.931Z,202.20
2022-12-27T08:22:41.084Z,232.60
2022-12-27T08:23:42.073Z,209.32
2022-12-27T08:24:43.290Z,227.02
2022-12-27T08:25:48.797Z,215.60
2022-12-27T08:26:51.014Z,200.85
2022-12-27T08:27:51.865Z,208.27
2022-12-27T08:28:53.074Z,223.03
2022-12-27T08:29:53.931Z,225.90
2022-12-27T08:30:55.106Z,184.93
2022-12-27T08:31:56.008Z,198.38
2022-12-27T08:32:57.210Z,184.77
2022-12-27T08:33:58.886Z,192.35
2022-12-27T08:35:18.234Z,199.80
2022-12-27T08:37:42.112Z,191.90
2022-12-27T08:38:42.977Z,198.45
2022-12-27T08:39:44.145Z,197.48
2022-12-27T08:40:45.411Z,180.38
2022-12-27T08:41:46.824Z,215.63
2022-12-27T08:42:48.327Z,202.63
2022-12-27T08:43:49.822Z,203.55
2022-12-27T08:44:50.740Z,197.88
2022-12-27T08:45:51.940Z,171.55
2022-12-27T08:46:52.831Z,178.68
2022-12-27T08:47:58.238Z,184.83
2022-12-27T08:48:59.078Z,161.02
2022-12-27T08:50:00.242Z,192.27
2022-12-27T08:51:07.343Z,189.73
2022-12-27T08:52:11.757Z,177.73
2022-12-27T08:53:12.583Z,188.13
2022-12-27T08:54:13.733Z,176.57
2022-12-27T08:55:14.687Z,173.10
2022-12-27T08:56:15.862Z,171.40
2022-12-27T08:57:16.726Z,153.93
2022-12-27T08:58:18.571Z,185.00
2022-12-27T08:59:19.481Z,164.45
2022-12-27T09:00:20.760Z,183.37
2022-12-27T09:01:21.788Z,161.25
2022-12-27T09:02:23.275Z,180.02
2022-12-27T09:03:24.507Z,169.75
2022-12-27T09:04:25.383Z,166.27
2022-12-27T09:05:27.560Z,185.40
2022-12-27T09:06:28.726Z,165.70
2022-12-27T09:07:29.575Z,179.60
2022-12-27T09:08:30.748Z,164.87
2022-12-27T09:09:31.965Z,161.88
2022-12-27T09:10:33.140Z,162.45
2022-12-27T09:11:34.079Z,172.40
2022-12-27T09:12:35.249Z,171.75
2022-12-27T09:13:36.794Z,178.07
2022-12-27T09:14:37.916Z,166.45
2022-12-27T09:15:45.626Z,168.65
2022-12-27T09:16:46.775Z,175.35
2022-12-27T09:17:47.606Z,179.85
2022-12-27T09:18:49.912Z,224.32
2022-12-27T09:19:50.832Z,217.35
2022-12-27T09:20:51.994Z,228.17
2022-12-27T09:21:53.117Z,260.48
2022-12-27T09:22:54.029Z,416.67
2022-12-27T09:23:55.224Z,305.17
2022-12-27T09:24:56.364Z,323.23
2022-12-27T09:25:57.364Z,424.23
2022-12-27T09:26:58.475Z,549.67
2022-12-27T09:27:59.342Z,493.67
2022-12-27T09:29:01.239Z,445.92
2022-12-27T09:30:02.780Z,398.27
2022-12-27T09:31:04.575Z,250.55
2022-12-27T09:32:05.448Z,297.90
2022-12-27T09:33:06.585Z,226.82
2022-12-27T09:34:08.831Z,299.23
2022-12-27T09:35:10.103Z,375.92
2022-12-27T09:36:11.637Z,212.77
2022-12-27T09:37:12.925Z,197.73
2022-12-27T09:38:13.755Z,178.52
2022-12-27T09:39:16.511Z,222.27
2022-12-27T09:40:19.295Z,279.42
2022-12-27T09:41:58.996Z,317.40
2022-12-27T09:42:59.626Z,187.73
2022-12-27T09:44:11.462Z,367.40
2022-12-27T09:45:14.048Z,319.85
2022-12-27T09:46:17.244Z,343.27
2022-12-27T09:47:20.467Z,274.10
2022-12-27T09:48:29.353Z,221.55
2022-12-27T09:49:36.484Z,191.13
2022-12-27T09:50:41.457Z,165.70
2022-12-27T09:51:45.098Z,167.68
2022-12-27T09:52:53.183Z,154.63
2022-12-27T09:53:57.230Z,146.57
2022-12-27T09:55:04.665Z,170.90
2022-12-27T09:56:06.463Z,174.25
2022-12-27T09:57:21.080Z,166.07
2022-12-27T09:58:31.539Z,187.98
2022-12-27T09:59:36.343Z,178.13
2022-12-27T10:00:40.030Z,149.63
2022-12-27T10:01:48.369Z,140.93
2022-12-27T10:02:49.596Z,145.52
2022-12-27T10:03:51.460Z,160.18
2022-12-27T10:05:23.092Z,163.93
2022-12-27T10:06:19.884Z,132.00
2022-12-27T10:07:24.021Z,123.35
2022-12-27T10:08:30.155Z,135.30
2022-12-27T10:09:43.734Z,114.15
2022-12-27T10:10:49.166Z,115.18
2022-12-27T10:11:55.976Z,117.50
2022-12-27T10:13:03.000Z,114.07
2022-12-27T10:14:23.472Z,127.97
2022-12-27T10:15:27.171Z,99.18
2022-12-27T10:16:32.535Z,122.20
2022-12-27T10:17:42.358Z,112.43
2022-12-27T10:18:45.905Z,112.68
2022-12-27T10:19:54.571Z,106.32
2022-12-27T10:20:59.622Z,106.85
2022-12-27T10:22:04.996Z,117.85
2022-12-27T10:23:10.204Z,115.25
2022-12-27T10:24:16.331Z,102.50
2022-12-27T10:25:19.713Z,112.95
2022-12-27T10:26:20.828Z,118.25
2022-12-27T10:27:23.176Z,109.80
2022-12-27T10:28:27.113Z,104.15
2022-12-27T10:29:28.504Z,110.47
2022-12-27T10:30:30.344Z,108.43
2022-12-27T10:31:31.732Z,117.03
2022-12-27T10:32:32.651Z,126.38
2022-12-27T10:33:34.572Z,114.53
2022-12-27T10:35:37.457Z,117.65
2022-12-27T10:36:39.660Z,127.80
2022-12-27T10:37:40.550Z,122.85
2022-12-27T10:38:41.690Z,135.63
2022-12-27T10:39:42.856Z,141.45
2022-12-27T10:40:50.199Z,137.70
2022-12-27T10:41:56.439Z,140.43
2022-12-27T10:43:01.648Z,131.50
2022-12-27T10:44:09.678Z,122.90
2022-12-27T10:45:26.888Z,134.20
2022-12-27T10:46:33.175Z,148.02
2022-12-27T10:47:34.584Z,129.60
2022-12-27T10:49:02.675Z,139.50
2022-12-27T10:50:01.799Z,127.03
2022-12-27T10:51:08.075Z,132.05
2022-12-27T10:52:10.484Z,134.20
2022-12-27T10:53:25.368Z,147.27
2022-12-27T10:54:27.363Z,142.20
2022-12-27T10:56:29.984Z,152.50
2022-12-27T10:57:32.720Z,137.32
2022-12-27T10:58:36.716Z,141.18
2022-12-27T10:59:37.876Z,150.82
2022-12-27T11:00:38.739Z,159.38
2022-12-27T11:01:40.728Z,235.43
2022-12-27T11:03:42.854Z,200.27
2022-12-27T11:04:57.668Z,220.52
2022-12-27T11:05:59.329Z,184.27
2022-12-27T11:07:11.213Z,227.55
2022-12-27T11:08:18.440Z,284.27
2022-12-27T11:09:24.610Z,230.40
2022-12-27T11:10:26.609Z,195.23
2022-12-27T11:12:29.987Z,203.30
2022-12-27T11:13:30.954Z,206.70
2022-12-27T11:14:32.262Z,186.60
2022-12-27T11:15:34.611Z,206.90
2022-12-27T11:16:35.903Z,191.88
2022-12-27T11:17:38.384Z,204.50
2022-12-27T11:18:44.220Z,190.45
2022-12-27T11:19:47.449Z,222.80
2022-12-27T11:20:49.770Z,197.50
2022-12-27T11:21:52.191Z,215.38
2022-12-27T11:22:54.466Z,224.25
2022-12-27T11:23:57.317Z,210.43
2022-12-27T11:24:59.672Z,216.57
2022-12-27T11:26:02.300Z,231.65
2022-12-27T11:27:03.717Z,235.60
2022-12-27T11:28:05.806Z,216.25
2022-12-27T11:30:19.580Z,193.13
2022-12-27T11:31:31.935Z,191.20
2022-12-27T11:32:32.853Z,220.40
2022-12-27T11:33:36.787Z,246.25
2022-12-27T11:34:38.820Z,216.68
2022-12-27T11:36:42.367Z,237.25
2022-12-27T11:37:43.551Z,261.05
2022-12-27T11:38:44.431Z,224.85
2022-12-27T11:39:46.322Z,236.90
2022-12-27T11:40:54.235Z,219.93
2022-12-27T11:41:56.655Z,225.95
2022-12-27T11:43:00.714Z,226.75
2022-12-27T11:44:05.216Z,240.07
2022-12-27T11:45:10.676Z,202.30
2022-12-27T11:46:18.231Z,218.07
2022-12-27T11:47:26.617Z,242.50
2022-12-27T11:48:28.939Z,225.40
2022-12-27T11:49:33.875Z,179.32
2022-12-27T11:50:50.452Z,177.57
2022-12-27T11:52:09.552Z,196.98
2022-12-27T11:53:31.636Z,179.90
2022-12-27T11:54:44.733Z,179.70
2022-12-27T11:56:09.785Z,202.60
2022-12-27T11:57:17.174Z,189.07
2022-12-27T11:58:31.341Z,178.00
2022-12-27T11:59:38.955Z,219.40
2022-12-27T12:00:43.391Z,344.50
2022-12-27T12:02:01.090Z,266.63
2022-12-27T12:03:15.739Z,302.23
2022-12-27T12:04:37.889Z,219.55
2022-12-27T12:05:57.318Z,268.77
2022-12-27T12:07:03.777Z,302.33
2022-12-27T12:08:14.052Z,223.10
2022-12-27T12:09:28.693Z,397.17
2022-12-27T12:10:34.499Z,344.88
2022-12-27T12:11:49.959Z,371.60
2022-12-27T12:13:09.141Z,334.40
2022-12-27T12:14:28.385Z,346.58
2022-12-27T12:15:36.227Z,262.05
2022-12-27T12:16:49.492Z,260.55
2022-12-27T12:17:55.585Z,223.70
2022-12-27T12:19:03.691Z,161.20
2022-12-27T12:20:16.698Z,196.10
2022-12-27T12:21:23.746Z,158.90
2022-12-27T12:22:34.304Z,154.77
2022-12-27T12:23:46.252Z,157.02
2022-12-27T12:24:54.832Z,142.68
2022-12-27T12:26:05.515Z,120.88
2022-12-27T12:27:23.768Z,153.35
2022-12-27T12:28:57.634Z,139.50
2022-12-27T12:30:12.086Z,151.00
2022-12-27T12:31:19.631Z,149.70
2022-12-27T12:32:32.549Z,165.20
2022-12-27T12:33:51.333Z,195.57
2022-12-27T12:35:10.103Z,171.65
2022-12-27T12:36:23.988Z,175.27
2022-12-27T12:37:34.648Z,220.57
2022-12-27T12:38:39.042Z,214.07
2022-12-27T12:39:49.401Z,199.00
2022-12-27T12:41:16.224Z,196.32
2022-12-27T12:42:20.220Z,187.35
2022-12-27T12:43:29.045Z,187.70
2022-12-27T12:44:59.539Z,174.18
2022-12-27T12:46:02.273Z,167.70
2022-12-27T12:47:07.315Z,161.52
2022-12-27T12:48:25.269Z,168.80
2022-12-27T12:49:35.042Z,181.23
2022-12-27T12:50:45.945Z,170.63
2022-12-27T12:51:57.265Z,178.68
2022-12-27T12:53:09.874Z,183.65
2022-12-27T12:54:27.472Z,171.82
2022-12-27T12:55:46.523Z,156.10
2022-12-27T12:56:52.765Z,160.80
2022-12-27T12:57:59.001Z,178.48
2022-12-27T12:59:05.387Z,182.32
2022-12-27T13:00:14.557Z,164.20
2022-12-27T13:01:23.550Z,142.70
2022-12-27T13:02:40.934Z,188.32
2022-12-27T13:03:52.887Z,179.57
2022-12-27T13:05:04.194Z,166.13
2022-12-27T13:06:11.658Z,170.15
2022-12-27T13:07:26.324Z,181.88
2022-12-27T13:08:30.058Z,196.48
2022-12-27T13:09:37.617Z,164.00
2022-12-27T13:10:57.092Z,178.43
2022-12-27T13:12:01.804Z,173.60
2022-12-27T13:13:04.595Z,146.93
2022-12-27T13:14:20.574Z,152.18
2022-12-27T13:15:28.359Z,146.32
2022-12-27T13:16:37.643Z,149.93
2022-12-27T13:17:41.020Z,154.23
2022-12-27T13:18:48.475Z,138.38
2022-12-27T13:19:59.873Z,123.18
2022-12-27T13:21:07.371Z,133.43
2022-12-27T13:22:12.819Z,121.88
2022-12-27T13:23:19.716Z,120.68
2022-12-27T13:24:27.869Z,126.00
2022-12-27T13:25:37.055Z,117.13
2022-12-27T13:26:42.230Z,104.55
2022-12-27T13:27:49.381Z,101.28
2022-12-27T13:28:58.433Z,114.75
2022-12-27T13:30:06.850Z,97.68
2022-12-27T13:31:12.823Z,103.13
2022-12-27T13:32:19.302Z,104.70
2022-12-27T13:33:25.167Z,100.22
2022-12-27T13:34:33.638Z,105.97
2022-12-27T13:35:39.342Z,101.90
2022-12-27T13:36:45.164Z,98.93
2022-12-27T13:37:51.971Z,94.10
2022-12-27T13:39:01.694Z,95.30
2022-12-27T13:40:12.887Z,94.10
2022-12-27T13:41:23.656Z,99.57
2022-12-27T13:42:47.380Z,86.60
2022-12-27T13:43:52.634Z,76.47
2022-12-27T13:45:00.172Z,89.93
2022-12-27T13:46:08.901Z,82.22
2022-12-27T13:47:31.858Z,78.82
2022-12-27T13:48:55.940Z,76.22
2022-12-27T13:50:10.908Z,71.75
2022-12-27T13:51:18.956Z,82.30
2022-12-27T13:52:27.855Z,92.47
2022-12-27T13:53:43.542Z,85.63
2022-12-27T13:54:57.755Z,72.55
2022-12-27T13:56:14.645Z,74.35
2022-12-27T13:57:30.604Z,80.47
2022-12-27T13:58:42.276Z,78.72
2022-12-27T13:59:52.278Z,73.90
2022-12-27T14:00:58.071Z,74.93
2022-12-27T14:02:17.371Z,83.75
2022-12-27T14:03:37.258Z,75.07
2022-12-27T14:04:45.931Z,76.15
2022-12-27T14:06:04.676Z,67.78
2022-12-27T14:07:16.782Z,76.63
2022-12-27T14:08:22.858Z,71.60